Time,TemperatureF,DewpointF,PressureIn,WindDirection,WindDirectionDegrees,WindSpeedMPH,WindSpeedGustMPH,Humidity,HourlyPrecipIn,Conditions,Clouds,dailyrainin,SolarRadiationWatts/m^2,SoftwareType,DateUTC
2013-05-15 00:03:00,68.0,55.0,-100.00,SW,220,6.0,12.0,63,0.00,,,0.00,0.000000,,2013-05-15 04:03:00,
2013-05-15 00:33:00,67.0,55.0,-100.00,SW,216,7.0,12.0,66,0.00,,,0.00,0.000000,,2013-05-15 04:33:00,
2013-05-15 00:43:00,67.0,55.0,-100.00,SW,216,7.0,12.0,66,0.00,,,0.00,0.000000,,2013-05-15 04:43:00,
2013-05-15 00:52:00,67.0,55.0,-100.00,SW,216,7.0,12.0,66,0.00,,,0.00,0.000000,,2013-05-15 04:52:00,
2013-05-15 01:02:00,67.0,55.0,-100.00,SW,216,7.0,12.0,66,0.00,,,0.00,0.000000,,2013-05-15 05:02:00,
2013-05-15 01:32:00,66.0,55.0,-100.00,SW,226,6.0,11.0,67,0.00,,,0.00,0.000000,,2013-05-15 05:32:00,
2013-05-15 01:42:00,66.0,55.0,-100.00,SW,226,6.0,11.0,67,0.00,,,0.00,0.000000,,2013-05-15 05:42:00,
2013-05-15 01:52:00,66.0,55.0,-100.00,SW,226,6.0,11.0,67,0.00,,,0.00,0.000000,,2013-05-15 05:52:00,
2013-05-15 02:02:00,66.0,55.0,-100.00,SW,226,6.0,11.0,67,0.00,,,0.00,0.000000,,2013-05-15 06:02:00,
2013-05-15 02:32:00,65.0,55.0,-100.00,SSW,210,5.0,11.0,69,0.00,,,0.00,0.000000,,2013-05-15 06:32:00,
2013-05-15 02:42:00,65.0,55.0,-100.00,SSW,210,5.0,11.0,69,0.00,,,0.00,0.000000,,2013-05-15 06:42:00,
2013-05-15 02:52:00,65.0,55.0,-100.00,SSW,210,5.0,11.0,69,0.00,,,0.00,0.000000,,2013-05-15 06:52:00,
2013-05-15 03:01:00,65.0,55.0,-100.00,SSW,210,5.0,11.0,69,0.00,,,0.00,0.000000,,2013-05-15 07:01:00,
2013-05-15 03:32:00,65.0,55.0,-100.00,SW,216,6.0,10.0,71,0.00,,,0.00,0.000000,,2013-05-15 07:32:00,
2013-05-15 03:42:00,65.0,55.0,-100.00,SW,216,6.0,10.0,71,0.00,,,0.00,0.000000,,2013-05-15 07:42:00,
2013-05-15 03:52:00,65.0,55.0,-100.00,SW,216,6.0,10.0,71,0.00,,,0.00,0.000000,,2013-05-15 07:52:00,
2013-05-15 04:02:00,65.0,55.0,-100.00,SW,216,6.0,10.0,71,0.00,,,0.00,0.000000,,2013-05-15 08:02:00,
2013-05-15 04:32:00,64.0,54.0,-100.00,SSW,207,6.0,10.0,71,0.00,,,0.00,0.000000,,2013-05-15 08:32:00,
2013-05-15 04:42:00,64.0,54.0,-100.00,SSW,207,6.0,10.0,71,0.00,,,0.00,0.000000,,2013-05-15 08:42:00,
2013-05-15 04:53:00,64.0,54.0,-100.00,SSW,207,6.0,10.0,71,0.00,,,0.00,0.000000,,2013-05-15 08:53:00,
2013-05-15 05:01:00,64.0,54.0,-100.00,SSW,207,6.0,10.0,71,0.00,,,0.00,0.000000,,2013-05-15 09:01:00,
2013-05-15 05:33:00,64.0,54.0,-100.00,SW,215,6.0,10.0,70,-99.99,,,0.00,0.000000,,2013-05-15 09:33:00,
2013-05-15 05:42:00,64.0,54.0,-100.00,SW,215,6.0,10.0,70,-99.99,,,0.00,0.000000,,2013-05-15 09:42:00,
2013-05-15 05:53:00,64.0,54.0,-100.00,SW,215,6.0,10.0,70,-99.99,,,0.00,0.000000,,2013-05-15 09:53:00,
2013-05-15 06:05:00,63.0,53.0,-100.00,SSW,212,4.0,9.0,70,-99.99,,,0.00,0.000000,,2013-05-15 10:05:00,
2013-05-15 06:32:00,63.0,53.0,-100.00,SSW,212,4.0,9.0,70,-99.99,,,0.00,0.000000,,2013-05-15 10:32:00,
2013-05-15 06:43:00,63.0,53.0,-100.00,SSW,212,4.0,9.0,70,-99.99,,,0.00,0.000000,,2013-05-15 10:43:00,
2013-05-15 06:53:00,63.0,53.0,-100.00,SSW,212,4.0,9.0,70,-99.99,,,0.00,0.000000,,2013-05-15 10:53:00,
2013-05-15 07:40:00,64.0,54.0,-100.00,SW,223,4.0,9.0,69,0.00,,,0.00,6.000000,,2013-05-15 11:40:00,
2013-05-15 08:38:00,68.0,54.0,-100.00,SW,224,3.0,6.0,61,-99.99,,,0.00,65.000000,,2013-05-15 12:38:00,
2013-05-15 10:39:00,75.0,58.0,-100.00,West,263,3.0,4.0,55,-99.99,,,0.00,194.000000,,2013-05-15 14:39:00,
2013-05-15 11:05:00,78.0,59.0,-100.00,West,263,4.0,10.0,52,0.00,,,0.00,242.000000,,2013-05-15 15:05:00,
2013-05-15 11:40:00,78.0,59.0,-100.00,West,263,4.0,10.0,52,0.00,,,0.00,242.000000,,2013-05-15 15:40:00,
2013-05-15 11:49:00,78.0,59.0,-100.00,West,263,4.0,10.0,52,0.00,,,0.00,242.000000,,2013-05-15 15:49:00,
2013-05-15 12:02:00,78.0,59.0,-100.00,West,263,4.0,10.0,52,0.00,,,0.00,242.000000,,2013-05-15 16:02:00,
2013-05-15 12:40:00,81.0,58.0,-100.00,WNW,290,4.0,9.0,45,0.00,,,0.00,278.000000,,2013-05-15 16:40:00,
2013-05-15 12:52:00,81.0,58.0,-100.00,WNW,290,4.0,9.0,45,0.00,,,0.00,278.000000,,2013-05-15 16:52:00,
2013-05-15 13:01:00,81.0,58.0,-100.00,WNW,290,4.0,9.0,45,0.00,,,0.00,278.000000,,2013-05-15 17:01:00,
2013-05-15 14:05:00,85.0,57.0,-100.00,West,261,4.0,9.0,39,-99.99,,,0.00,295.000000,,2013-05-15 18:05:00,
2013-05-15 14:38:00,85.0,57.0,-100.00,West,261,4.0,9.0,39,-99.99,,,0.00,295.000000,,2013-05-15 18:38:00,
2013-05-15 14:58:00,85.0,57.0,-100.00,West,261,4.0,9.0,39,-99.99,,,0.00,295.000000,,2013-05-15 18:58:00,
2013-05-15 15:05:00,87.0,59.0,-100.00,West,263,3.0,9.0,39,0.00,,,0.00,282.000000,,2013-05-15 19:05:00,
2013-05-15 15:39:00,87.0,59.0,-100.00,West,263,3.0,9.0,39,0.00,,,0.00,282.000000,,2013-05-15 19:39:00,
2013-05-15 15:50:00,87.0,59.0,-100.00,West,263,3.0,9.0,39,0.00,,,0.00,282.000000,,2013-05-15 19:50:00,
2013-05-15 15:58:00,87.0,59.0,-100.00,West,263,3.0,9.0,39,0.00,,,0.00,282.000000,,2013-05-15 19:58:00,
2013-05-15 16:05:00,86.0,56.0,-100.00,WSW,253,4.0,9.0,36,0.00,,,0.00,263.000000,,2013-05-15 20:05:00,
2013-05-15 16:40:00,86.0,56.0,-100.00,WSW,253,4.0,9.0,36,0.00,,,0.00,263.000000,,2013-05-15 20:40:00,
2013-05-15 16:47:00,86.0,56.0,-100.00,WSW,253,4.0,9.0,36,0.00,,,0.00,263.000000,,2013-05-15 20:47:00,
2013-05-15 16:59:00,86.0,56.0,-100.00,WSW,253,4.0,9.0,36,0.00,,,0.00,263.000000,,2013-05-15 20:59:00,
2013-05-15 17:05:00,87.0,57.0,-100.00,West,276,4.0,10.0,36,0.00,,,-99.99,240.000000,,2013-05-15 21:05:00,
2013-05-15 17:42:00,87.0,57.0,-100.00,West,276,4.0,10.0,36,0.00,,,-99.99,240.000000,,2013-05-15 21:42:00,
2013-05-15 17:54:00,87.0,57.0,-100.00,West,276,4.0,10.0,36,0.00,,,-99.99,240.000000,,2013-05-15 21:54:00,
2013-05-15 18:01:00,87.0,57.0,-100.00,West,276,4.0,10.0,36,0.00,,,-99.99,240.000000,,2013-05-15 22:01:00,
2013-05-15 18:42:00,83.0,55.0,-100.00,WSW,238,4.0,8.0,38,0.00,,,0.00,200.000000,,2013-05-15 22:42:00,
2013-05-15 18:53:00,83.0,55.0,-100.00,WSW,238,4.0,8.0,38,0.00,,,0.00,200.000000,,2013-05-15 22:53:00,
2013-05-15 19:00:00,83.0,55.0,-100.00,WSW,238,4.0,8.0,38,0.00,,,0.00,200.000000,,2013-05-15 23:00:00,
2013-05-15 19:05:00,81.0,53.0,-100.00,WSW,256,3.0,10.0,38,0.00,,,0.00,167.000000,,2013-05-15 23:05:00,
2013-05-15 19:40:00,81.0,53.0,-100.00,WSW,256,3.0,10.0,38,0.00,,,0.00,167.000000,,2013-05-15 23:40:00,
2013-05-15 19:50:00,81.0,53.0,-100.00,WSW,256,3.0,10.0,38,0.00,,,0.00,167.000000,,2013-05-15 23:50:00,
2013-05-15 20:01:00,81.0,53.0,-100.00,WSW,256,3.0,10.0,38,0.00,,,0.00,167.000000,,2013-05-16 00:01:00,
2013-05-15 21:05:00,73.0,53.0,-100.00,WSW,237,3.0,5.0,49,-99.99,,,0.00,6.000000,,2013-05-16 01:05:00,
2013-05-15 21:40:00,73.0,53.0,-100.00,WSW,237,3.0,5.0,49,-99.99,,,0.00,6.000000,,2013-05-16 01:40:00,
2013-05-15 21:50:00,73.0,53.0,-100.00,WSW,237,3.0,5.0,49,-99.99,,,0.00,6.000000,,2013-05-16 01:50:00,
2013-05-15 22:02:00,73.0,53.0,-100.00,WSW,237,3.0,5.0,49,-99.99,,,0.00,6.000000,,2013-05-16 02:02:00,
2013-05-15 22:05:00,71.0,54.0,-100.00,WNW,288,4.0,7.0,55,0.00,,,-99.99,0.000000,,2013-05-16 02:05:00,
2013-05-15 22:40:00,71.0,54.0,-100.00,WNW,288,4.0,7.0,55,0.00,,,-99.99,0.000000,,2013-05-16 02:40:00,
2013-05-15 22:49:00,71.0,54.0,-100.00,WNW,288,4.0,7.0,55,0.00,,,-99.99,0.000000,,2013-05-16 02:49:00,
2013-05-15 22:56:00,71.0,54.0,-100.00,WNW,288,4.0,7.0,55,0.00,,,-99.99,0.000000,,2013-05-16 02:56:00,
2013-05-15 23:40:00,70.0,54.0,-100.00,WNW,285,4.0,6.0,56,0.00,,,0.00,0.000000,,2013-05-16 03:40:00,
2013-05-15 23:47:00,70.0,54.0,-100.00,WNW,285,4.0,6.0,56,0.00,,,0.00,0.000000,,2013-05-16 03:47:00,
2013-05-15 23:58:00,70.0,54.0,-100.00,WNW,285,4.0,6.0,56,0.00,,,0.00,0.000000,,2013-05-16 03:58:00,